Latest Weather Observations for Telfer

IDW60801

Issued at 10:03 pm WST Friday 23 April 2021 (issued every 10 minutes, with the page automatically refreshed every 10 minutes)

About weather observations | Map of weather stations | Latest weather observations for WA | Other Formats
Station Details ID: 013030 Name: TELFER AERO Lat: -21.71 Lon: 122.23 Height: 291.9 m
Data from the previous 72 hours. | See also: Recent months at Telfer
Date/Time
WST
Temp
°C
App
Temp
°C
Dew
Point
°C
Rel
Hum
%
Delta-T
°C
Wind Press
QNH
hPa
Press
MSL
hPa
Rain since
9am
mm
Dir  Spd
km/h
Gust
km/h
Spd
kts
Gust
kts
23/10:00pm 23.7 19.2 2.0 24 10.4 SSE 15 20 8 11 1017.8 1015.9 0.0
23/09:30pm 22.6 18.5 2.1 26 9.8 SE 13 15 7 8 1017.8 1015.9 0.0
23/09:00pm 24.2 19.5 1.2 22 10.9 SE 15 19 8 10 1017.8 1015.9 0.0
23/08:30pm 25.3 20.2 -2.3 16 12.4 SSE 15 19 8 10 1017.5 1015.6 0.0
23/08:00pm 25.5 20.8 0.9 20 11.7 SSE 15 17 8 9 1017.4 1015.5 0.0
23/07:30pm 25.9 21.0 -0.2 18 12.2 SSE 15 19 8 10 1017.1 1015.2 0.0
23/07:00pm 25.9 20.8 -5.6 12 13.3 SSE 13 15 7 8 1016.6 1014.8 0.0
23/06:30pm 26.3 21.5 -2.4 15 13.0 SSE 13 15 7 8 1016.2 1014.4 0.0
23/06:00pm 26.8 22.3 -0.3 17 12.7 SE 13 15 7 8 1016.0 1014.2 0.0
23/05:30pm 28.5 24.1 0.3 16 13.6 SSE 13 15 7 8 1015.7 1013.9 0.0
23/05:00pm 29.9 24.2 -0.5 14 14.6 SE 19 28 10 15 1015.4 1013.6 0.0
23/04:30pm 30.7 24.8 -0.8 13 15.1 ESE 20 26 11 14 1015.1 1013.2 0.0
23/04:00pm 31.1 26.4 -1.6 12 15.5 ESE 13 22 7 12 1014.8 1012.9 0.0
23/03:30pm 31.3 25.9 -1.5 12 15.6 SE 17 26 9 14 1014.6 1012.7 0.0
23/03:00pm 31.9 26.5 -1.0 12 15.9 E 17 28 9 15 1014.7 1012.8 0.0
23/02:30pm 31.3 26.0 -0.4 13 15.4 ESE 17 22 9 12 1014.9 1013.0 0.0
23/02:00pm 31.9 26.7 0.1 13 15.6 ESE 17 26 9 14 1015.2 1013.3 0.0
23/01:30pm 31.0 25.3 -0.6 13 15.2 ESE 19 32 10 17 1015.5 1013.7 0.0
23/01:00pm 31.5 26.4 0.8 14 15.2 E 17 28 9 15 1016.0 1014.2 0.0
23/12:30pm 30.8 25.0 0.2 14 14.9 ESE 20 32 11 17 1016.4 1014.6 0.0
23/12:00pm 30.7 24.3 1.1 15 14.7 ESE 24 35 13 19 1016.9 1015.0 0.0
23/11:30am 29.2 22.9 1.7 17 13.6 ESE 24 33 13 18 1017.6 1015.7 0.0
23/11:00am 28.1 19.3 -32.9 1 16.7 ESE 26 33 14 18 1018.3 1016.4 0.0
23/10:30am 27.3 20.9 0.9 18 12.7 ESE 24 32 13 17 1018.8 1017.0 0.0
23/10:00am 26.6 20.0 -0.4 17 12.6 ESE 24 32 13 17 1019.0 1017.2 0.0
23/09:30am 25.3 19.0 1.4 21 11.5 ESE 24 30 13 16 1019.1 1017.3 0.0
23/09:00am 23.7 17.3 0.7 22 10.7 SE 24 32 13 17 1019.1 1017.3 0.0
23/08:30am 22.1 15.9 2.2 27 9.5 ESE 24 32 13 17 1018.9 1017.1 0.0
23/08:00am 20.9 14.7 2.2 29 8.8 SE 24 32 13 17 1018.9 1017.1 0.0
23/07:30am 19.3 13.0 1.8 31 8.1 SE 24 32 13 17 1018.6 1016.8 0.0
23/07:00am 18.5 12.2 1.5 32 7.7 SSE 24 32 13 17 1018.2 1016.3 0.0
23/06:30am 17.8 11.8 0.9 32 7.6 SSE 22 28 12 15 1017.8 1015.9 0.0
23/06:00am 17.5 11.8 0.6 32 7.5 SE 20 26 11 14 1017.5 1015.6 0.0
23/05:30am 17.8 12.2 0.9 32 7.6 SE 20 24 11 13 1017.2 1015.3 0.0
23/05:00am 18.1 12.0 0.3 30 7.9 SE 22 28 12 15 1016.9 1015.0 0.0
23/04:30am 18.6 12.5 0.2 29 8.2 SE 22 28 12 15 1016.9 1015.0 0.0
23/04:00am 18.9 12.8 0.5 29 8.3 SE 22 28 12 15 1016.6 1014.8 0.0
23/03:30am 19.1 13.0 0.2 28 8.4 SE 22 28 12 15 1016.5 1014.7 0.0
23/03:00am 19.0 13.4 0.1 28 8.4 SE 19 26 10 14 1016.5 1014.7 0.0
23/02:30am 19.4 13.6 -0.1 27 8.7 SE 20 26 11 14 1016.5 1014.7 0.0
23/02:00am 19.4 13.6 -0.1 27 8.7 SE 20 24 11 13 1016.5 1014.7 0.0
23/01:30am 19.4 13.6 -0.1 27 8.7 SE 20 24 11 13 1016.6 1014.8 0.0
23/01:00am 20.1 13.9 -0.5 25 9.1 SE 22 26 12 14 1016.8 1014.9 0.0
23/12:30am 20.6 14.8 -0.1 25 9.3 SE 20 24 11 13 1017.0 1015.1 0.0
23/12:00am 20.7 15.1 0.0 25 9.3 SE 19 24 10 13 1017.1 1015.2 0.0
 
Date/Time
WST
Temp
°C
App
Temp
°C
Dew
Point
°C
Rel
Hum
%
Delta-T
°C
Wind Press
QNH
hPa
Press
MSL
hPa
Rain since
9am
mm
Dir  Spd
km/h
Gust
km/h
Spd
kts
Gust
kts
22/11:30pm 21.6 15.9 -0.4 23 9.9 SSE 19 22 10 12 1017.3 1015.4 0.0
22/11:00pm 22.0 16.3 -0.7 22 10.2 SE 19 22 10 12 1017.2 1015.3 0.0
22/10:30pm 22.7 16.9 -0.1 22 10.4 SSE 20 24 11 13 1017.4 1015.5 0.0
22/10:00pm 23.0 17.7 -0.5 21 10.7 SSE 17 20 9 11 1017.6 1015.7 0.0
22/09:30pm 23.5 18.2 -0.7 20 11.0 SSE 17 20 9 11 1017.6 1015.7 0.0
22/09:00pm 23.1 17.8 -0.4 21 10.7 SE 17 20 9 11 1017.6 1015.7 0.0
22/08:30pm 22.6 17.7 -0.2 22 10.4 SE 15 17 8 9 1017.6 1015.7 0.0
22/08:00pm 23.4 18.6 -0.1 21 10.8 SE 15 17 8 9 1017.3 1015.4 0.0
22/07:30pm 23.4 18.9 -0.1 21 10.8 SE 13 17 7 9 1017.0 1015.1 0.0
22/07:00pm 24.0 19.6 0.4 21 11.0 SE 13 15 7 8 1016.5 1014.7 0.0
22/06:30pm 24.3 19.8 -0.1 20 11.3 SE 13 15 7 8 1016.2 1014.4 0.0
22/06:00pm 25.5 19.5 -34.4 1 15.4 ESE 11 13 6 7 1015.8 1014.0 0.0
22/05:30pm 27.6 21.3 -33.2 1 16.4 ESE 13 19 7 10 1015.5 1013.7 0.0
22/05:00pm 29.6 22.6 -3.9 11 15.1 ESE 24 32 13 17 1015.2 1013.3 0.0
22/04:30pm 30.4 23.3 -4.6 10 15.7 ESE 24 37 13 20 1014.9 1013.0 0.0
22/04:00pm 31.1 23.9 -5.5 9 16.2 ESE 24 43 13 23 1014.8 1012.9 0.0
22/03:30pm 31.3 23.3 -5.3 9 16.3 ESE 28 35 15 19 1014.7 1012.8 0.0
22/03:00pm 31.5 23.2 -5.2 9 16.4 ESE 30 41 16 22 1014.8 1012.9 0.0
22/02:30pm 31.5 23.3 -3.8 10 16.2 E 30 43 16 23 1015.0 1013.1 0.0
22/02:00pm 30.6 22.4 -7.4 8 16.3 ESE 28 43 15 23 1015.3 1013.5 0.0
22/01:30pm 31.2 22.3 -6.9 8 16.5 SE 32 46 17 25 1015.6 1013.8 0.0
22/01:03pm 31.2 23.1 -6.9 8 16.5 ESE 28 46 15 25 1016.1 1014.3 0.0
22/01:00pm 31.6 24.0 -5.1 9 16.5 ESE 26 37 14 20 1016.1 1014.3 0.0
22/12:41pm 31.7 23.4 -5.0 9 16.5 ESE 30 52 16 28 1016.3 1014.5 0.0
22/12:30pm 30.5 22.5 -5.9 9 16.0 ESE 28 39 15 21 1016.6 1014.8 0.0
22/12:00pm 30.9 23.1 -4.2 10 15.9 ESE 28 39 15 21 1017.0 1015.1 0.0
22/11:44am 30.8 22.9 -4.3 10 15.9 ESE 28 48 15 26 1017.3 1015.4 0.0
22/11:30am 30.4 22.1 -4.6 10 15.7 ESE 30 41 16 22 1017.6 1015.7 0.0
22/11:00am 30.4 23.2 -2.2 12 15.2 E 26 41 14 22 1017.9 1016.0 0.0
22/10:30am 29.4 21.7 -2.9 12 14.8 E 28 39 15 21 1018.4 1016.6 0.0
22/10:00am 28.8 21.2 -2.3 13 14.3 E 28 39 15 21 1018.6 1016.8 0.0
22/09:30am 27.2 20.4 0.8 18 12.7 E 26 35 14 19 1018.9 1017.1 0.0
22/09:00am 26.2 19.8 0.8 19 12.1 ESE 24 33 13 18 1019.1 1017.3 0.0
22/08:30am 24.0 18.0 1.0 22 10.9 ESE 22 32 12 17 1019.0 1017.2 0.0
22/08:00am 21.7 16.4 1.9 27 9.3 SE 19 26 10 14 1018.9 1017.1 0.0
22/07:30am 20.1 16.0 2.5 31 8.3 ESE 13 20 7 11 1018.5 1016.7 0.0
22/07:00am 17.7 14.6 3.6 39 6.7 ESE 9 13 5 7 1018.1 1016.2 0.0
22/06:30am 14.5 10.8 4.2 50 4.8 SE 13 15 7 8 1018.1 1016.2 0.0
22/06:00am 14.9 11.0 3.4 46 5.3 SE 13 15 7 8 1018.0 1016.1 0.0
22/05:30am 14.8 10.5 3.3 46 5.3 SE 15 17 8 9 1017.8 1015.9 0.0
22/05:00am 15.6 11.6 3.1 43 5.8 SE 13 15 7 8 1017.6 1015.7 0.0
22/04:30am 15.3 11.3 2.8 43 5.7 SE 13 13 7 7 1017.5 1015.6 0.0
22/04:00am 15.7 11.6 2.5 41 6.0 SE 13 13 7 7 1017.3 1015.4 0.0
22/03:30am 16.2 12.4 1.9 38 6.5 E 11 13 6 7 1017.4 1015.5 0.0
22/03:00am 15.9 12.1 2.0 39 6.3 E 11 13 6 7 1017.3 1015.4 0.0
22/02:30am 18.0 13.6 0.6 31 7.8 E 13 15 7 8 1017.2 1015.3 0.0
22/02:00am 20.3 15.1 0.2 26 9.1 ESE 17 20 9 11 1017.3 1015.4 0.0
22/01:30am 20.6 15.4 -0.1 25 9.3 ESE 17 20 9 11 1017.5 1015.6 0.0
22/01:00am 21.0 15.4 0.2 25 9.4 ESE 19 22 10 12 1017.6 1015.7 0.0
22/12:30am 21.0 16.2 0.2 25 9.4 ESE 15 19 8 10 1017.7 1015.8 0.0
22/12:00am 20.7 15.9 0.5 26 9.2 SE 15 17 8 9 1018.1 1016.2 0.0
 
Date/Time
WST
Temp
°C
App
Temp
°C
Dew
Point
°C
Rel
Hum
%
Delta-T
°C
Wind Press
QNH
hPa
Press
MSL
hPa
Rain since
9am
mm
Dir  Spd
km/h
Gust
km/h
Spd
kts
Gust
kts
21/11:30pm 21.6 16.5 0.8 25 9.6 SE 17 20 9 11 1018.1 1016.2 0.0
21/11:00pm 21.5 16.8 1.2 26 9.4 SE 15 20 8 11 1018.1 1016.2 0.0
21/10:30pm 21.7 16.7 1.4 26 9.5 SE 17 20 9 11 1018.1 1016.2 0.0
21/10:00pm 23.2 17.7 0.9 23 10.4 SE 19 22 10 12 1018.3 1016.4 0.0
21/09:30pm 23.4 18.4 1.1 23 10.5 SE 17 20 9 11 1018.4 1016.6 0.0
21/09:00pm 22.9 18.4 1.9 25 10.0 SE 15 19 8 10 1018.3 1016.4 0.0
21/08:30pm 23.0 18.7 3.0 27 9.7 SSE 15 19 8 10 1018.1 1016.2 0.0
21/08:00pm 22.3 18.8 3.4 29 9.2 SE 11 13 6 7 1017.9 1016.0 0.0
21/07:30pm 25.4 21.4 2.8 23 11.1 SSE 13 17 7 9 1017.5 1015.6 0.0
21/07:00pm 25.7 22.0 2.4 22 11.4 SSE 11 15 6 8 1017.1 1015.2 0.0
21/06:30pm 26.0 22.2 2.0 21 11.7 SE 11 13 6 7 1016.8 1014.9 0.0
21/06:00pm 26.5 22.7 1.7 20 12.1 ESE 11 13 6 7 1016.3 1014.5 0.0
21/05:30pm 28.6 23.4 0.3 16 13.6 ESE 17 22 9 12 1015.9 1014.1 0.0
21/05:00pm 30.0 23.8 -0.4 14 14.6 ESE 22 32 12 17 1015.5 1013.7 0.0
21/04:30pm 30.7 24.0 -0.8 13 15.1 E 24 30 13 16 1015.2 1013.3 0.0
21/04:00pm 31.2 24.6 -0.5 13 15.3 SE 24 33 13 18 1015.0 1013.1 0.0
21/03:30pm 31.3 24.5 0.6 14 15.1 SE 26 41 14 22 1015.0 1013.1 0.0
21/03:00pm 31.3 24.7 -0.4 13 15.4 ESE 24 37 13 20 1015.1 1013.2 0.0
21/02:30pm 31.3 23.9 -0.4 13 15.4 ESE 28 43 15 23 1015.2 1013.3 0.0
21/02:00pm 31.3 24.3 -0.4 13 15.4 ESE 26 39 14 21 1015.4 1013.6 0.0
21/01:30pm 31.7 26.1 1.0 14 15.3 SE 20 35 11 19 1015.6 1013.8 0.0
21/01:00pm 31.7 25.7 1.0 14 15.3 E 22 32 12 17 1016.0 1014.2 0.0
21/12:30pm 31.6 25.3 1.8 15 15.0 E 24 39 13 21 1016.4 1014.6 0.0
21/12:00pm 31.4 25.1 1.7 15 14.9 ESE 24 35 13 19 1016.9 1015.0 0.0
21/11:30am 30.6 23.8 1.0 15 14.6 SE 26 39 14 21 1017.3 1015.4 0.0
21/11:00am 30.2 23.1 1.6 16 14.2 SE 28 35 15 19 1017.6 1015.7 0.0
21/10:30am 29.2 23.1 2.5 18 13.4 SSE 24 33 13 18 1017.9 1016.0 0.0
21/10:00am 28.5 22.5 3.4 20 12.7 SE 24 33 13 18 1018.1 1016.2 0.0
21/09:30am 26.7 21.1 3.2 22 11.8 SE 22 30 12 16 1018.4 1016.6 0.0
21/09:00am 26.8 21.4 4.6 24 11.4 SE 22 30 12 16 1018.3 1016.4 0.0
21/08:30am 25.3 20.6 5.0 27 10.4 ESE 19 22 10 12 1018.0 1016.1 0.0
21/08:00am 23.4 18.5 5.3 31 9.2 ENE 20 26 11 14 1017.9 1016.0 0.0
21/07:30am 22.0 17.5 6.3 36 8.1 E 19 24 10 13 1017.7 1015.8 0.0
21/07:00am 20.6 16.3 6.9 41 7.1 E 19 22 10 12 1017.4 1015.5 0.0
21/06:30am 19.7 15.5 7.4 45 6.4 E 19 20 10 11 1017.1 1015.2 0.0
21/06:00am 19.4 16.0 7.5 46 6.1 SE 15 20 8 11 1016.9 1015.0 0.0
21/05:30am 20.1 16.3 7.5 44 6.5 SE 17 22 9 12 1016.2 1014.4 0.0
21/05:00am 19.4 16.0 7.8 47 6.0 SE 15 19 8 10 1015.8 1014.0 0.0
21/04:30am 19.7 16.0 8.1 47 6.1 SE 17 19 9 10 1015.6 1013.8 0.0
21/04:00am 20.7 16.9 7.7 43 6.8 SE 17 20 9 11 1015.2 1013.3 0.0
21/03:30am 20.5 17.2 8.2 45 6.5 SE 15 17 8 9 1015.0 1013.1 0.0
21/03:00am 20.8 17.9 8.1 44 6.7 SE 13 17 7 9 1014.9 1013.0 0.0
21/02:30am 22.6 18.4 7.6 38 7.9 SSE 19 24 10 13 1015.0 1013.1 0.0
21/02:00am 23.2 19.3 7.3 36 8.4 SSE 17 22 9 12 1015.2 1013.3 0.0
21/01:30am 23.5 18.7 7.2 35 8.6 SSE 22 28 12 15 1015.4 1013.6 0.0
21/01:00am 23.3 19.5 7.4 36 8.4 SSE 17 20 9 11 1015.7 1013.9 0.0
21/12:30am 23.5 19.3 7.6 36 8.4 SSE 19 24 10 13 1015.9 1014.1 0.0
21/12:00am 23.9 19.1 7.5 35 8.7 SSE 22 30 12 16 1016.2 1014.4 0.0
 
Date/Time
WST
Temp
°C
App
Temp
°C
Dew
Point
°C
Rel
Hum
%
Delta-T
°C
Wind Press
QNH
hPa
Press
MSL
hPa
Rain since
9am
mm
Dir  Spd
km/h
Gust
km/h
Spd
kts
Gust
kts
20/11:30pm 23.8 19.5 7.8 36 8.5 SSE 20 30 11 16 1016.2 1014.4 0.0
20/11:00pm 24.4 19.6 7.5 34 9.0 S 22 30 12 16 1016.4 1014.6 0.0
20/10:30pm 25.0 19.7 6.7 31 9.7 S 24 33 13 18 1016.6 1014.8 0.0

Other formats

Comma delimited format used in spreadsheet applications
http://www.bom.gov.au/fwo/IDW60801/IDW60801.94319.axf

JavaScript Object Notation format (JSON) in row-major order
http://www.bom.gov.au/fwo/IDW60801/IDW60801.94319.json

Data quality

Most of these data are generated automatically and are frequently updated. Quality checks on data are not normally performed. It is possible for incorrect values to appear. Refer to information at About Latest Weather Observations and please check the disclaimer before using these data.